Time;durP1;ratioP1;P1;durP2;ratioP2;P2;SDS_P1;SDS_P2;PMS_P1;PMS_P2;Temp;Humidity;BMP_temperature;BMP_pressure;BME280_temperature;BME280_humidity;BME280_pressure;Samples;Min_cycle;Max_cycle;Signal;HPM_P1;HPM_P2
2021/12/30 00:01:42;;;;;;;22.60;3.60;;;9.80;99.90;;;;;;4982933;28;20133;-71
2021/12/30 00:04:08;;;;;;;19.90;4.53;;;9.90;99.90;;;;;;5002870;28;20080;-71
2021/12/30 00:06:41;;;;;;;24.30;4.40;;;9.90;99.90;;;;;;4998289;28;20041;-70
2021/12/30 00:09:12;;;;;;;28.92;5.13;;;9.90;99.90;;;;;;5000427;28;20405;-72
2021/12/30 00:11:38;;;;;;;26.45;5.90;;;10.40;99.90;;;;;;5001153;28;20120;-72
2021/12/30 00:14:05;;;;;;;28.73;5.40;;;10.50;99.90;;;;;;4984418;28;20037;-71
2021/12/30 00:16:30;;;;;;;20.90;5.10;;;10.00;99.90;;;;;;5000700;28;20029;-73
2021/12/30 00:18:56;;;;;;;24.83;4.93;;;9.90;99.90;;;;;;5003158;28;20056;-72
2021/12/30 00:21:23;;;;;;;20.88;4.65;;;10.50;99.90;;;;;;5000421;28;20053;-71
2021/12/30 00:23:50;;;;;;;17.42;4.70;;;10.30;99.90;;;;;;5001375;28;20049;-72
2021/12/30 00:26:16;;;;;;;27.30;4.60;;;10.10;99.90;;;;;;4999116;28;20045;-72
2021/12/30 00:28:42;;;;;;;35.00;5.10;;;10.00;99.90;;;;;;4999397;28;20053;-71
2021/12/30 00:31:08;;;;;;;33.42;6.22;;;10.40;99.90;;;;;;4991374;28;20386;-73
2021/12/30 00:33:34;;;;;;;40.67;5.95;;;10.40;99.90;;;;;;5020910;28;20044;-71
2021/12/30 00:36:08;;;;;;;27.10;5.30;;;9.80;99.90;;;;;;4990573;28;20036;-73
2021/12/30 00:38:36;;;;;;;27.93;4.37;;;9.80;99.90;;;;;;5007394;28;20045;-73
2021/12/30 00:41:02;;;;;;;32.55;5.38;;;9.80;99.90;;;;;;5005760;28;20038;-73
2021/12/30 00:43:28;;;;;;;26.17;4.57;;;10.20;99.90;;;;;;5007736;28;20051;-75
2021/12/30 00:45:54;;;;;;;25.38;4.25;;;9.90;99.90;;;;;;5005135;28;20050;-73
2021/12/30 00:48:19;;;;;;;32.45;5.10;;;10.00;99.90;;;;;;5008711;28;21504;-72
2021/12/30 00:50:46;;;;;;;33.92;5.18;;;9.70;99.90;;;;;;5008968;28;20065;-73
2021/12/30 00:53:12;;;;;;;27.30;4.82;;;9.70;99.90;;;;;;5010965;28;20488;-72
2021/12/30 00:55:39;;;;;;;23.90;4.78;;;9.70;99.90;;;;;;5011794;28;20033;-70
2021/12/30 00:58:06;;;;;;;24.75;5.07;;;9.60;99.90;;;;;;5014570;28;20136;-72
2021/12/30 01:00:33;;;;;;;29.02;4.53;;;10.10;99.90;;;;;;4994339;28;20045;-73
2021/12/30 01:02:59;;;;;;;38.10;5.40;;;9.80;99.90;;;;;;5009553;28;20060;-71
2021/12/30 01:05:25;;;;;;;29.00;6.32;;;9.90;99.90;;;;;;5010761;28;20049;-73
2021/12/30 01:07:51;;;;;;;30.27;4.90;;;10.20;99.90;;;;;;5025157;28;20047;-71
2021/12/30 01:10:23;;;;;;;28.88;4.85;;;9.60;99.90;;;;;;5009779;28;20095;-72
2021/12/30 01:12:54;;;;;;;39.30;5.25;;;10.20;99.90;;;;;;5009240;28;20045;-72
2021/12/30 01:15:30;;;;;;;28.90;5.55;;;10.20;99.90;;;;;;4994701;28;20048;-73
2021/12/30 01:18:19;;;;;;;36.50;5.00;;;9.60;99.90;;;;;;5008781;28;20049;-74
2021/12/30 01:20:41;;;;;;;36.20;5.18;;;10.10;99.90;;;;;;5011720;28;20045;-74
2021/12/30 01:23:07;;;;;;;38.47;6.88;;;9.70;99.90;;;;;;5014363;28;20044;-72
2021/12/30 01:25:33;;;;;;;34.25;5.57;;;10.10;99.90;;;;;;4999389;28;20124;-73
2021/12/30 01:27:58;;;;;;;36.92;5.90;;;10.00;99.90;;;;;;5015406;28;20132;-75
2021/12/30 01:30:24;;;;;;;38.45;6.30;;;9.70;99.90;;;;;;5012819;28;20068;-74
2021/12/30 01:32:50;;;;;;;36.42;6.13;;;9.70;99.90;;;;;;4997419;28;20136;-72
2021/12/30 01:35:22;;;;;;;44.22;6.72;;;10.30;99.90;;;;;;4997685;28;20049;-71
2021/12/30 01:37:53;;;;;;;49.78;7.88;;;10.00;99.90;;;;;;5014428;28;20128;-75
2021/12/30 01:40:20;;;;;;;46.08;6.45;;;10.20;99.90;;;;;;5012869;28;20060;-72
2021/12/30 01:42:48;;;;;;;37.13;6.85;;;10.20;99.90;;;;;;5014942;28;20080;-72
2021/12/30 01:45:14;;;;;;;35.38;5.97;;;9.80;99.90;;;;;;5017180;28;20138;-75
2021/12/30 01:47:47;;;;;;;42.90;7.55;;;10.20;99.90;;;;;;5020402;28;20097;-73
2021/12/30 01:50:13;;;;;;;45.60;8.18;;;9.90;99.90;;;;;;5012793;28;20071;-75
2021/12/30 01:52:39;;;;;;;44.08;6.22;;;10.30;99.90;;;;;;5011777;28;20037;-75
2021/12/30 01:55:06;;;;;;;52.13;7.85;;;10.30;99.90;;;;;;5013123;28;20040;-73
2021/12/30 01:57:32;;;;;;;39.72;6.60;;;10.00;99.90;;;;;;5010028;28;20045;-74
2021/12/30 01:59:57;;;;;;;39.83;6.30;;;10.40;99.90;;;;;;5029906;28;20485;-75
2021/12/30 02:02:23;;;;;;;55.63;8.57;;;10.30;99.90;;;;;;4998822;28;20033;-74
2021/12/30 02:04:51;;;;;;;47.20;7.85;;;9.90;99.90;;;;;;5013372;28;20397;-76
2021/12/30 02:07:17;;;;;;;49.63;7.70;;;10.20;99.90;;;;;;5010216;28;20052;-73
2021/12/30 02:09:43;;;;;;;41.95;6.88;;;9.90;99.90;;;;;;5011149;28;20493;-75
2021/12/30 02:12:09;;;;;;;49.60;7.13;;;10.20;99.90;;;;;;5009609;28;20056;-75
2021/12/30 02:14:36;;;;;;;40.47;6.63;;;9.70;99.90;;;;;;4997857;28;20674;-72
2021/12/30 02:17:05;;;;;;;47.13;7.40;;;10.20;99.90;;;;;;4993947;28;20053;-73
2021/12/30 02:19:31;;;;;;;36.55;6.80;;;10.10;99.90;;;;;;5013759;28;20670;-74
2021/12/30 02:21:56;;;;;;;41.25;6.75;;;9.70;99.90;;;;;;5012557;28;20045;-71
2021/12/30 02:24:22;;;;;;;37.97;5.88;;;9.80;99.90;;;;;;5010568;28;20420;-74
2021/12/30 02:26:48;;;;;;;38.47;6.68;;;9.70;99.90;;;;;;5009006;28;20065;-74
2021/12/30 02:29:14;;;;;;;48.15;7.13;;;10.00;99.90;;;;;;5009723;28;20064;-76
2021/12/30 02:31:40;;;;;;;32.92;5.88;;;10.00;99.90;;;;;;4998021;28;20124;-73
2021/12/30 02:34:05;;;;;;;37.13;6.57;;;9.90;99.90;;;;;;5011237;28;20061;-75
2021/12/30 02:36:35;;;;;;;42.15;7.22;;;9.70;99.90;;;;;;4995443;28;20045;-76
2021/12/30 02:39:05;;;;;;;36.38;6.38;;;9.60;99.90;;;;;;5012637;28;20052;-73
2021/12/30 02:41:36;;;;;;;42.92;7.47;;;10.00;99.90;;;;;;5014891;28;20076;-74
2021/12/30 02:44:05;;;;;;;31.70;6.35;;;9.90;99.90;;;;;;5009220;28;20139;-70
2021/12/30 02:46:32;;;;;;;42.75;6.25;;;9.40;99.90;;;;;;4995315;28;20034;-71
2021/12/30 02:48:59;;;;;;;33.95;5.80;;;9.90;99.90;;;;;;5016704;28;20052;-73
2021/12/30 02:51:26;;;;;;;38.10;7.95;;;9.60;99.90;;;;;;5014322;28;20049;-73
2021/12/30 02:53:53;;;;;;;48.33;7.38;;;9.60;99.90;;;;;;5030329;28;20061;-73
2021/12/30 02:56:20;;;;;;;37.92;6.93;;;9.50;99.90;;;;;;5017513;28;20489;-74
2021/12/30 02:58:45;;;;;;;39.28;6.05;;;10.00;99.90;;;;;;5001429;28;20045;-75
2021/12/30 03:01:16;;;;;;;37.17;5.85;;;9.60;99.90;;;;;;5022187;28;20052;-74
2021/12/30 03:03:41;;;;;;;37.90;5.75;;;9.80;99.90;;;;;;5008534;28;20119;-76
2021/12/30 03:06:09;;;;;;;37.05;6.63;;;9.50;99.90;;;;;;5012071;28;20088;-73
2021/12/30 03:08:36;;;;;;;40.28;7.07;;;9.50;99.90;;;;;;5011645;28;20037;-72
2021/12/30 03:11:03;;;;;;;50.75;7.28;;;9.90;99.90;;;;;;4996747;28;20056;-75
2021/12/30 03:13:34;;;;;;;43.45;8.20;;;9.90;99.90;;;;;;5011958;28;20060;-75
2021/12/30 03:16:13;;;;;;;50.90;8.68;;;10.10;99.90;;;;;;4998057;28;20422;-75
2021/12/30 03:18:40;;;;;;;35.97;9.02;;;9.80;99.90;;;;;;5013161;28;20037;-71
2021/12/30 03:21:07;;;;;;;41.95;7.35;;;10.20;99.90;;;;;;5021282;28;20586;-71
2021/12/30 03:23:33;;;;;;;52.10;8.40;;;10.10;99.90;;;;;;5015128;28;20082;-72
2021/12/30 03:25:59;;;;;;;47.08;9.98;;;10.30;99.90;;;;;;5010559;28;20366;-69
2021/12/30 03:28:25;;;;;;;43.30;8.70;;;10.00;99.90;;;;;;4978327;28;20056;-73
2021/12/30 03:30:51;;;;;;;45.30;9.05;;;10.20;99.90;;;;;;4992296;28;20045;-71
2021/12/30 03:33:20;;;;;;;51.30;10.73;;;10.00;99.90;;;;;;4993436;28;20066;-74
2021/12/30 03:35:46;;;;;;;54.38;10.65;;;10.40;99.90;;;;;;5029214;28;20041;-74
2021/12/30 03:38:12;;;;;;;53.67;10.23;;;10.30;99.90;;;;;;4979225;28;20045;-73
2021/12/30 03:40:38;;;;;;;42.10;9.38;;;10.50;99.90;;;;;;5007540;28;20420;-72
2021/12/30 03:43:04;;;;;;;41.50;9.02;;;10.30;99.90;;;;;;5010750;28;20036;-73
2021/12/30 03:45:29;;;;;;;44.63;9.65;;;10.10;99.90;;;;;;4992951;28;20528;-72
2021/12/30 03:47:55;;;;;;;43.60;9.82;;;10.10;99.90;;;;;;5010248;28;20061;-73
2021/12/30 03:50:25;;;;;;;47.05;10.98;;;10.50;99.90;;;;;;5006617;28;20084;-72
2021/12/30 03:53:02;;;;;;;52.85;12.50;;;10.60;99.90;;;;;;5010916;28;20046;-72
2021/12/30 03:55:30;;;;;;;60.83;11.45;;;10.50;99.90;;;;;;5007276;28;20038;-69
2021/12/30 03:57:56;;;;;;;51.00;11.65;;;10.60;99.90;;;;;;5006782;28;20037;-69
2021/12/30 04:00:24;;;;;;;58.03;13.20;;;10.70;99.90;;;;;;5002537;28;20069;-74
2021/12/30 04:02:50;;;;;;;54.08;12.07;;;10.40;99.90;;;;;;4988957;28;20048;-71
2021/12/30 04:05:16;;;;;;;62.83;12.82;;;10.40;99.90;;;;;;4974541;28;20037;-72
2021/12/30 04:07:42;;;;;;;59.38;13.02;;;10.30;99.90;;;;;;5005675;28;20091;-71
2021/12/30 04:10:09;;;;;;;50.47;12.07;;;10.60;99.90;;;;;;5010372;28;20037;-74
2021/12/30 04:12:35;;;;;;;43.30;10.30;;;10.90;99.90;;;;;;5006277;28;20072;-75
2021/12/30 04:15:03;;;;;;;47.03;11.52;;;10.90;99.90;;;;;;5010665;28;20670;-72
2021/12/30 04:17:30;;;;;;;51.65;11.18;;;10.80;99.90;;;;;;5011192;28;20049;-73
2021/12/30 04:19:55;;;;;;;46.50;12.30;;;10.50;99.90;;;;;;4997047;28;20103;-72
2021/12/30 04:22:21;;;;;;;55.70;11.88;;;10.60;99.90;;;;;;5012927;28;20037;-71
2021/12/30 04:24:47;;;;;;;50.03;13.20;;;10.60;99.90;;;;;;4992206;28;20685;-72
2021/12/30 04:27:13;;;;;;;48.88;12.10;;;11.10;99.90;;;;;;4991925;28;20147;-72
2021/12/30 04:29:39;;;;;;;49.95;11.63;;;11.10;99.90;;;;;;5007923;28;20037;-75
2021/12/30 04:32:05;;;;;;;52.35;10.40;;;11.00;99.90;;;;;;5008973;28;20489;-72
2021/12/30 04:34:31;;;;;;;55.13;13.48;;;10.70;99.90;;;;;;5009823;28;20136;-71
2021/12/30 04:37:00;;;;;;;51.58;13.18;;;10.50;99.90;;;;;;5026397;28;20052;-73
2021/12/30 04:39:28;;;;;;;50.55;11.65;;;10.60;99.90;;;;;;5008734;28;20486;-74
2021/12/30 04:41:54;;;;;;;55.50;11.70;;;11.20;99.90;;;;;;5003816;28;20034;-70
2021/12/30 04:44:21;;;;;;;68.68;13.57;;;10.70;99.90;;;;;;5009131;28;20156;-74
2021/12/30 04:46:47;;;;;;;53.72;11.90;;;10.70;99.90;;;;;;4975070;28;20115;-75
2021/12/30 04:49:13;;;;;;;59.58;11.93;;;10.70;99.90;;;;;;5012438;28;20045;-76
2021/12/30 04:51:38;;;;;;;58.88;12.02;;;10.80;99.90;;;;;;5010285;28;20045;-76
2021/12/30 04:54:04;;;;;;;50.50;12.20;;;11.40;99.90;;;;;;4994622;28;20048;-73
2021/12/30 04:56:30;;;;;;;48.97;10.23;;;11.00;99.90;;;;;;5007771;28;20041;-75
2021/12/30 04:58:55;;;;;;;48.78;12.18;;;11.40;99.90;;;;;;5008724;28;20049;-75
2021/12/30 05:01:21;;;;;;;47.33;11.55;;;11.40;99.90;;;;;;4992143;28;20041;-72
2021/12/30 05:03:47;;;;;;;60.08;11.40;;;11.40;99.90;;;;;;5009025;28;20045;-75
2021/12/30 05:06:13;;;;;;;48.97;10.65;;;11.50;99.90;;;;;;5011905;28;20064;-73
2021/12/30 05:08:39;;;;;;;64.68;11.65;;;11.10;99.90;;;;;;5004950;28;20041;-75
2021/12/30 05:11:05;;;;;;;52.20;11.73;;;11.30;99.90;;;;;;5009200;28;20075;-75
2021/12/30 05:13:31;;;;;;;56.63;12.75;;;11.40;99.90;;;;;;5008353;28;20045;-72
2021/12/30 05:15:56;;;;;;;50.15;12.52;;;11.30;99.90;;;;;;4991354;28;21032;-73
2021/12/30 05:18:30;;;;;;;47.08;11.70;;;11.10;99.90;;;;;;4992936;28;20569;-74
2021/12/30 05:20:57;;;;;;;61.15;11.65;;;10.90;99.90;;;;;;4960567;28;20413;-75
2021/12/30 05:23:22;;;;;;;48.80;11.43;;;11.50;99.90;;;;;;5010898;28;20060;-74
2021/12/30 05:25:48;;;;;;;38.90;10.95;;;11.30;99.90;;;;;;4989889;28;20042;-73
2021/12/30 05:28:14;;;;;;;38.33;11.38;;;11.30;99.90;;;;;;5008095;28;20080;-74
2021/12/30 05:30:39;;;;;;;49.35;12.70;;;11.50;99.90;;;;;;5005703;28;20590;-73
2021/12/30 05:33:05;;;;;;;46.45;11.70;;;11.00;99.90;;;;;;5007764;28;20120;-73
2021/12/30 05:35:31;;;;;;;48.95;11.82;;;11.30;99.90;;;;;;5010813;28;20033;-72
2021/12/30 05:37:59;;;;;;;45.85;11.48;;;11.70;99.90;;;;;;5007717;28;20160;-74
2021/12/30 05:40:24;;;;;;;61.28;14.93;;;11.60;99.90;;;;;;5009545;28;20045;-74
2021/12/30 05:42:50;;;;;;;48.80;12.98;;;11.90;99.90;;;;;;5009228;28;20037;-71
2021/12/30 05:45:17;;;;;;;63.53;15.63;;;11.60;99.90;;;;;;5010399;28;20559;-76
2021/12/30 05:47:48;;;;;;;59.13;15.82;;;12.00;99.90;;;;;;5012362;28;20053;-73
2021/12/30 05:50:24;;;;;;;60.45;18.08;;;11.50;99.90;;;;;;5012758;28;20556;-74
2021/12/30 05:52:50;;;;;;;71.90;16.48;;;12.10;99.90;;;;;;5015005;28;20102;-72
2021/12/30 05:55:16;;;;;;;60.90;16.95;;;11.80;99.90;;;;;;5011508;28;20045;-71
2021/12/30 05:57:43;;;;;;;68.13;18.10;;;11.80;99.90;;;;;;5009251;28;20108;-71
2021/12/30 06:00:12;;;;;;;59.58;16.95;;;12.30;99.90;;;;;;5006224;28;20037;-74
2021/12/30 06:02:37;;;;;;;55.92;15.38;;;12.20;99.90;;;;;;4993772;28;20041;-75
2021/12/30 06:05:05;;;;;;;50.67;15.65;;;11.90;99.90;;;;;;5025369;28;20045;-71
2021/12/30 06:07:31;;;;;;;46.67;14.15;;;12.00;99.90;;;;;;5010675;28;20486;-72
2021/12/30 06:09:57;;;;;;;45.28;14.75;;;12.30;99.90;;;;;;4993905;28;20041;-71
2021/12/30 06:12:22;;;;;;;61.10;16.85;;;12.00;99.90;;;;;;5012633;28;20048;-74
2021/12/30 06:14:48;;;;;;;52.13;13.60;;;12.50;99.90;;;;;;5009576;28;20108;-70
2021/12/30 06:17:15;;;;;;;39.67;11.63;;;12.10;99.90;;;;;;5008864;28;20472;-73
2021/12/30 06:19:42;;;;;;;42.97;13.00;;;12.70;99.90;;;;;;4975707;28;20049;-72
2021/12/30 06:22:12;;;;;;;38.00;12.63;;;12.00;99.90;;;;;;5004578;28;20041;-74
2021/12/30 06:24:38;;;;;;;35.75;11.18;;;12.10;99.90;;;;;;5016132;28;20039;-71
2021/12/30 06:27:04;;;;;;;29.05;9.68;;;12.60;99.90;;;;;;4995059;28;20049;-73
2021/12/30 06:29:29;;;;;;;30.13;10.32;;;12.40;99.90;;;;;;5011743;28;20029;-73
2021/12/30 06:31:55;;;;;;;25.80;11.23;;;12.10;99.90;;;;;;5011513;28;20654;-70
2021/12/30 06:34:21;;;;;;;31.33;10.15;;;12.50;99.90;;;;;;5012790;28;20068;-72
2021/12/30 06:36:47;;;;;;;29.88;10.63;;;12.40;99.90;;;;;;4995985;28;20052;-73
2021/12/30 06:39:12;;;;;;;31.67;10.45;;;12.80;99.90;;;;;;5013735;28;20042;-73
2021/12/30 06:41:38;;;;;;;32.10;10.98;;;12.70;99.90;;;;;;5014175;28;20049;-70
2021/12/30 06:44:04;;;;;;;32.85;11.07;;;12.40;99.90;;;;;;4978112;28;20029;-70
2021/12/30 06:46:30;;;;;;;31.13;10.52;;;13.00;99.90;;;;;;5011939;28;20037;-73
2021/12/30 06:48:56;;;;;;;32.92;10.85;;;12.70;99.90;;;;;;5027787;28;20103;-77
2021/12/30 06:51:26;;;;;;;34.47;10.93;;;13.10;99.90;;;;;;5012411;28;20137;-74
2021/12/30 06:53:54;;;;;;;37.75;12.45;;;12.40;99.90;;;;;;5008285;28;20120;-70
2021/12/30 06:56:21;;;;;;;49.08;13.95;;;12.50;99.90;;;;;;5011619;28;20065;-74
2021/12/30 06:58:47;;;;;;;41.05;11.90;;;12.90;99.90;;;;;;5028797;28;20073;-73
2021/12/30 07:01:13;;;;;;;33.50;11.80;;;13.10;99.90;;;;;;4980579;28;20415;-73
2021/12/30 07:03:39;;;;;;;40.03;11.85;;;13.30;99.90;;;;;;5015468;28;20080;-70
2021/12/30 07:06:05;;;;;;;46.00;13.40;;;13.20;99.90;;;;;;5010854;28;20038;-71
2021/12/30 07:08:31;;;;;;;38.72;11.50;;;12.50;99.90;;;;;;5011272;28;20045;-72
2021/12/30 07:10:56;;;;;;;41.17;12.57;;;12.50;99.90;;;;;;5012845;28;20064;-71
2021/12/30 07:13:22;;;;;;;35.38;10.35;;;12.80;99.90;;;;;;5011313;28;20045;-73
2021/12/30 07:15:48;;;;;;;36.80;11.65;;;13.00;99.90;;;;;;5010780;28;20033;-72
2021/12/30 07:18:13;;;;;;;37.15;11.40;;;13.00;99.90;;;;;;4996727;28;20117;-71
2021/12/30 07:20:39;;;;;;;38.13;10.68;;;12.60;99.90;;;;;;4970643;28;20042;-71
2021/12/30 07:23:05;;;;;;;37.33;11.32;;;13.00;99.90;;;;;;5013037;28;20039;-74
2021/12/30 07:25:31;;;;;;;35.10;10.15;;;12.70;99.90;;;;;;5014521;28;20124;-73
2021/12/30 07:27:56;;;;;;;33.22;11.35;;;13.40;99.90;;;;;;4996522;28;20068;-74
2021/12/30 07:30:25;;;;;;;38.33;11.27;;;12.90;99.90;;;;;;5013827;28;20038;-70
2021/12/30 07:32:51;;;;;;;38.25;12.55;;;13.10;99.90;;;;;;4994882;28;20077;-74
2021/12/30 07:35:19;;;;;;;39.15;11.98;;;12.80;99.90;;;;;;5015041;28;20038;-73
2021/12/30 07:37:45;;;;;;;37.13;11.70;;;13.70;99.90;;;;;;5014662;28;20045;-74
2021/12/30 07:40:11;;;;;;;29.65;10.15;;;13.30;99.90;;;;;;5017700;28;20045;-71
2021/12/30 07:42:37;;;;;;;38.30;11.55;;;13.60;99.90;;;;;;5015395;28;20112;-75
2021/12/30 07:45:04;;;;;;;33.85;10.00;;;12.80;99.90;;;;;;4997874;28;20124;-73
2021/12/30 07:47:30;;;;;;;36.10;10.48;;;13.70;99.90;;;;;;5014574;28;20165;-73
2021/12/30 07:49:55;;;;;;;27.63;9.13;;;13.20;99.90;;;;;;5019335;28;20065;-75
2021/12/30 07:52:21;;;;;;;25.88;8.50;;;13.50;99.90;;;;;;5017163;28;20045;-72
2021/12/30 07:54:47;;;;;;;28.92;8.57;;;13.50;99.90;;;;;;5015926;28;20052;-71
2021/12/30 07:57:23;;;;;;;26.40;8.50;;;13.60;99.90;;;;;;5014685;28;20168;-71
2021/12/30 07:59:54;;;;;;;24.77;8.35;;;13.60;99.90;;;;;;5018811;28;20107;-73
2021/12/30 08:02:20;;;;;;;18.77;8.07;;;13.70;99.90;;;;;;5013676;28;20037;-73
2021/12/30 08:04:46;;;;;;;21.25;7.78;;;13.80;99.90;;;;;;5031556;28;20087;-75
2021/12/30 08:07:12;;;;;;;18.80;7.80;;;13.80;99.90;;;;;;5029104;28;20041;-72
2021/12/30 08:09:38;;;;;;;16.65;6.63;;;13.30;99.90;;;;;;4997180;28;20053;-72
2021/12/30 08:12:04;;;;;;;20.15;7.00;;;13.10;99.90;;;;;;4995374;28;20041;-75
2021/12/30 08:14:30;;;;;;;15.82;6.13;;;13.50;99.90;;;;;;5015316;28;20052;-75
2021/12/30 08:16:56;;;;;;;13.43;6.05;;;13.10;99.90;;;;;;5014465;28;20029;-76
2021/12/30 08:19:22;;;;;;;13.02;6.20;;;13.80;99.90;;;;;;5012599;28;20049;-74
2021/12/30 08:21:48;;;;;;;10.68;4.63;;;13.40;99.90;;;;;;4989333;28;20146;-73
2021/12/30 08:24:13;;;;;;;9.13;4.85;;;13.50;99.90;;;;;;5006311;28;20593;-72
2021/12/30 08:26:40;;;;;;;8.82;4.60;;;13.90;99.90;;;;;;4990162;28;20052;-74
2021/12/30 08:29:06;;;;;;;8.07;4.43;;;13.30;99.90;;;;;;5005525;28;20128;-72
2021/12/30 08:31:36;;;;;;;5.95;3.85;;;13.90;99.90;;;;;;5006210;28;20194;-72
2021/12/30 08:34:04;;;;;;;6.45;3.80;;;13.30;99.90;;;;;;4986763;28;20041;-72
2021/12/30 08:36:30;;;;;;;7.70;3.60;;;13.40;99.90;;;;;;5006857;28;20128;-73
2021/12/30 08:38:56;;;;;;;5.18;3.05;;;13.40;99.90;;;;;;4992389;28;20131;-75
2021/12/30 08:41:23;;;;;;;6.88;3.58;;;13.90;99.90;;;;;;5007316;28;20151;-75
2021/12/30 08:43:48;;;;;;;6.68;3.85;;;14.10;99.90;;;;;;4990873;28;20374;-74
2021/12/30 08:46:14;;;;;;;6.97;3.75;;;13.30;99.90;;;;;;5008598;28;20076;-74
2021/12/30 08:48:41;;;;;;;6.30;3.92;;;13.40;99.90;;;;;;5006501;28;20168;-75
2021/12/30 08:51:07;;;;;;;6.28;4.15;;;13.30;99.90;;;;;;4975417;28;20150;-74
2021/12/30 08:53:40;;;;;;;8.38;4.60;;;13.80;99.90;;;;;;4991721;28;20132;-74
2021/12/30 08:56:06;;;;;;;9.85;5.22;;;13.20;99.90;;;;;;5009067;28;20036;-74
2021/12/30 08:58:32;;;;;;;8.98;5.38;;;13.30;99.90;;;;;;5010604;28;20081;-75
2021/12/30 09:00:58;;;;;;;13.90;7.22;;;14.20;99.90;;;;;;5009475;28;20095;-77
2021/12/30 09:03:24;;;;;;;14.75;6.85;;;14.10;99.90;;;;;;5008332;28;20221;-76
2021/12/30 09:05:49;;;;;;;15.00;7.03;;;13.70;99.90;;;;;;5024577;28;20056;-74
2021/12/30 09:08:15;;;;;;;13.18;7.25;;;13.80;99.90;;;;;;5007905;28;20050;-74
2021/12/30 09:10:45;;;;;;;12.55;7.15;;;13.70;99.90;;;;;;5006532;28;20136;-76
2021/12/30 09:13:14;;;;;;;18.02;7.65;;;13.90;99.90;;;;;;5006133;28;20037;-73
2021/12/30 09:15:40;;;;;;;12.77;7.72;;;13.60;99.90;;;;;;5006247;28;20523;-76
2021/12/30 09:18:06;;;;;;;16.50;8.65;;;13.40;99.90;;;;;;4989751;28;20042;-74
2021/12/30 09:20:35;;;;;;;16.50;8.13;;;13.50;99.90;;;;;;4990222;28;20077;-74
2021/12/30 09:23:03;;;;;;;16.83;8.20;;;13.80;99.90;;;;;;5005096;28;20084;-74
2021/12/30 09:25:29;;;;;;;18.90;8.45;;;13.80;99.90;;;;;;5004442;28;20150;-74
2021/12/30 09:27:55;;;;;;;18.15;7.82;;;14.30;99.90;;;;;;5003925;28;20041;-76
2021/12/30 09:30:23;;;;;;;17.85;9.23;;;14.00;99.90;;;;;;5009413;28;20409;-76
2021/12/30 09:32:50;;;;;;;17.73;9.70;;;14.40;99.90;;;;;;4982527;28;20126;-77
2021/12/30 09:35:16;;;;;;;21.95;9.13;;;13.90;99.90;;;;;;5001793;28;20048;-76
2021/12/30 09:37:43;;;;;;;20.90;9.15;;;14.20;99.90;;;;;;5003243;28;20030;-75
2021/12/30 09:40:13;;;;;;;18.92;7.95;;;14.00;99.90;;;;;;4989156;28;20420;-77
2021/12/30 09:42:40;;;;;;;22.27;8.20;;;14.00;99.90;;;;;;5020844;28;20152;-74
2021/12/30 09:45:07;;;;;;;18.80;7.22;;;14.30;99.90;;;;;;5006836;28;20743;-78
2021/12/30 09:47:34;;;;;;;16.02;7.60;;;13.80;99.90;;;;;;4989927;28;20068;-74
2021/12/30 09:50:01;;;;;;;24.30;8.02;;;14.30;99.90;;;;;;5002609;28;20517;-75
2021/12/30 09:52:26;;;;;;;13.77;6.65;;;13.40;99.90;;;;;;5006760;28;20151;-75
2021/12/30 09:54:52;;;;;;;14.32;7.43;;;14.40;99.90;;;;;;5006840;28;20057;-74
2021/12/30 09:57:18;;;;;;;16.67;7.25;;;14.40;99.90;;;;;;5022354;28;20048;-75
2021/12/30 09:59:44;;;;;;;21.08;9.02;;;14.30;99.90;;;;;;4990776;28;20477;-75
2021/12/30 10:02:10;;;;;;;20.13;8.00;;;13.90;99.90;;;;;;5022369;28;20124;-76
2021/12/30 10:04:36;;;;;;;15.93;7.63;;;14.20;99.90;;;;;;4990491;28;20056;-72
2021/12/30 10:07:16;;;;;;;19.98;8.10;;;14.10;99.90;;;;;;4990097;28;20132;-74
2021/12/30 10:09:55;;;;;;;21.52;9.48;;;13.80;99.90;;;;;;5005071;28;20044;-74
2021/12/30 10:12:39;;;;;;;19.83;7.85;;;13.70;99.90;;;;;;4989652;28;20417;-74
2021/12/30 10:15:07;;;;;;;14.30;7.03;;;13.80;99.90;;;;;;5005858;28;20132;-75
2021/12/30 10:17:34;;;;;;;17.85;7.38;;;13.80;99.90;;;;;;5003449;28;20043;-73
2021/12/30 10:20:25;;;;;;;19.92;7.65;;;14.00;99.90;;;;;;5006955;28;20045;-74
2021/12/30 10:22:52;;;;;;;24.48;9.60;;;13.50;99.90;;;;;;4990304;28;20049;-74
2021/12/30 10:25:33;;;;;;;17.85;8.52;;;13.50;99.90;;;;;;4989094;28;20119;-74
2021/12/30 10:28:36;;;;;;;23.83;9.45;;;13.80;99.90;;;;;;5004232;28;20124;-71
2021/12/30 10:31:11;;;;;;;19.23;8.10;;;13.90;99.90;;;;;;4989710;28;20064;-73
2021/12/30 10:33:45;;;;;;;18.95;8.25;;;13.80;99.90;;;;;;5005975;28;20124;-74
2021/12/30 10:36:19;;;;;;;29.52;10.13;;;14.40;99.90;;;;;;5005677;28;20037;-73
2021/12/30 10:38:46;;;;;;;24.55;8.63;;;14.40;99.90;;;;;;5006290;28;20116;-72
2021/12/30 10:41:12;;;;;;;28.15;9.27;;;13.60;99.90;;;;;;5006827;28;20037;-75
2021/12/30 10:43:46;;;;;;;20.08;8.93;;;14.00;99.90;;;;;;4987171;28;21048;-74
2021/12/30 10:46:26;;;;;;;25.63;8.43;;;13.90;99.90;;;;;;4990374;28;20044;-76
2021/12/30 10:48:56;;;;;;;26.23;9.52;;;13.60;99.90;;;;;;4988561;28;20501;-71
2021/12/30 10:51:32;;;;;;;26.63;9.70;;;13.50;99.90;;;;;;5003057;28;20043;-73
2021/12/30 10:53:58;;;;;;;20.13;7.78;;;14.40;99.90;;;;;;5005120;28;20660;-70
2021/12/30 10:56:27;;;;;;;21.27;8.23;;;13.90;99.90;;;;;;5002777;28;20041;-72
2021/12/30 10:58:55;;;;;;;23.80;7.70;;;14.30;99.90;;;;;;5005543;28;20037;-75
2021/12/30 11:01:22;;;;;;;21.88;7.28;;;13.90;99.90;;;;;;5003764;28;20782;-72
2021/12/30 11:04:00;;;;;;;25.02;8.70;;;14.00;99.90;;;;;;5006016;28;20052;-74
2021/12/30 11:06:26;;;;;;;25.40;8.57;;;13.60;99.90;;;;;;4988124;28;20086;-72
2021/12/30 11:09:12;;;;;;;23.02;8.10;;;14.30;99.90;;;;;;4988722;28;20049;-72
2021/12/30 11:11:45;;;;;;;22.98;8.00;;;14.30;99.90;;;;;;5003646;28;20080;-73
2021/12/30 11:14:14;;;;;;;26.45;8.07;;;14.40;99.90;;;;;;5022036;28;20047;-72
2021/12/30 11:17:18;;;;;;;25.52;7.78;;;13.80;99.90;;;;;;4988285;28;20045;-74
2021/12/30 11:19:52;;;;;;;23.40;8.02;;;13.60;99.90;;;;;;5004815;28;20041;-73
2021/12/30 11:22:24;;;;;;;33.05;9.10;;;14.40;99.90;;;;;;4988314;28;20469;-73
2021/12/30 11:24:53;;;;;;;36.60;10.43;;;14.10;99.90;;;;;;5004749;28;20037;-73
2021/12/30 11:27:19;;;;;;;25.23;9.45;;;13.50;99.90;;;;;;5003883;28;20045;-73
2021/12/30 11:29:47;;;;;;;35.28;10.07;;;13.50;99.90;;;;;;4985740;28;20053;-76
2021/12/30 11:32:17;;;;;;;30.23;9.95;;;13.70;99.90;;;;;;4987499;28;20432;-72
2021/12/30 11:34:47;;;;;;;43.28;9.43;;;14.40;99.90;;;;;;5004722;28;20084;-75
2021/12/30 11:37:14;;;;;;;38.80;10.02;;;13.60;99.90;;;;;;5004265;28;20067;-74
2021/12/30 11:39:46;;;;;;;35.88;9.10;;;13.50;99.90;;;;;;5005036;28;20041;-73
2021/12/30 11:42:24;;;;;;;35.85;9.88;;;13.50;99.90;;;;;;5020465;28;20049;-74
2021/12/30 11:45:00;;;;;;;48.63;10.15;;;13.60;99.90;;;;;;5005124;28;20049;-73
2021/12/30 11:47:32;;;;;;;38.38;9.85;;;14.30;99.90;;;;;;5002682;28;20033;-73
2021/12/30 11:50:02;;;;;;;29.90;9.10;;;13.70;99.90;;;;;;5004119;28;20116;-75
2021/12/30 11:52:58;;;;;;;37.65;8.82;;;13.70;99.90;;;;;;4986031;28;20038;-74
2021/12/30 11:55:47;;;;;;;39.95;9.60;;;14.40;99.90;;;;;;4982021;28;20049;-76
2021/12/30 11:58:48;;;;;;;43.47;9.73;;;14.20;99.90;;;;;;5004581;28;20037;-71
2021/12/30 12:01:13;;;;;;;31.58;7.90;;;14.30;99.90;;;;;;5003224;28;20109;-73
2021/12/30 12:03:42;;;;;;;40.40;8.30;;;14.40;99.90;;;;;;5004045;28;20045;-76
2021/12/30 12:06:30;;;;;;;37.15;8.80;;;14.20;99.90;;;;;;5004112;28;20045;-76
2021/12/30 12:08:56;;;;;;;31.42;8.35;;;13.60;99.90;;;;;;4989390;28;20046;-74
2021/12/30 12:11:28;;;;;;;39.65;8.23;;;13.70;99.90;;;;;;5005870;28;20048;-74
2021/12/30 12:14:11;;;;;;;35.78;8.38;;;13.80;99.90;;;;;;5004162;28;20041;-75
2021/12/30 12:16:49;;;;;;;42.80;8.35;;;13.70;99.90;;;;;;5004605;28;20539;-73
2021/12/30 12:19:21;;;;;;;27.35;7.15;;;14.40;99.90;;;;;;5013906;28;20691;-76
2021/12/30 12:21:53;;;;;;;31.50;8.02;;;13.70;99.90;;;;;;5012336;28;20037;-73
2021/12/30 12:24:21;;;;;;;38.55;8.70;;;13.60;99.90;;;;;;5005038;28;20127;-73
2021/12/30 12:26:53;;;;;;;38.08;8.05;;;13.70;99.90;;;;;;5021730;28;20153;-73
2021/12/30 12:29:26;;;;;;;43.33;8.15;;;14.00;99.90;;;;;;5004730;28;20140;-76
2021/12/30 12:31:57;;;;;;;37.97;8.55;;;13.90;99.90;;;;;;4988468;28;20044;-75
2021/12/30 12:34:47;;;;;;;34.88;7.75;;;14.50;99.90;;;;;;5004442;28;20199;-72
2021/12/30 12:37:37;;;;;;;29.92;7.32;;;14.00;99.90;;;;;;5004430;28;20121;-72
2021/12/30 12:40:10;;;;;;;27.50;6.20;;;14.50;99.90;;;;;;5003993;28;20511;-73
2021/12/30 12:42:48;;;;;;;33.70;6.85;;;14.30;99.90;;;;;;5006366;28;20041;-70